Time;durP1;ratioP1;P1;durP2;ratioP2;P2;SDS_P1;SDS_P2;PMS_P1;PMS_P2;Temp;Humidity;BMP_temperature;BMP_pressure;BME280_temperature;BME280_humidity;BME280_pressure;Samples;Min_cycle;Max_cycle;Signal;HPM_P1;HPM_P2
2022/05/23 04:49:51;;;;;;;8.60;2.80;;;;;;;22.93;37.29;100308.63;105856;1290;72643;-80
2022/05/23 04:52:22;;;;;;;6.00;2.40;;;;;;;22.94;37.06;100306.23;105730;1290;60557;-80
2022/05/23 04:54:48;;;;;;;8.30;2.10;;;;;;;22.95;37.17;100308.84;105858;1289;60305;-80
2022/05/23 04:57:14;;;;;;;5.80;2.10;;;;;;;22.95;37.15;100308.48;105774;1289;60749;-81
2022/05/23 04:59:40;;;;;;;7.90;2.30;;;;;;;22.93;37.07;100312.18;106230;1289;59134;-82
2022/05/23 05:02:05;;;;;;;4.60;2.10;;;;;;;22.93;37.04;100310.73;106051;1289;58837;-82
2022/05/23 05:04:31;;;;;;;12.50;2.60;;;;;;;22.90;37.12;100310.16;106332;1287;60431;-81
2022/05/23 05:06:57;;;;;;;4.10;2.20;;;;;;;22.84;36.73;100316.62;106270;1287;59281;-81
2022/05/23 05:09:22;;;;;;;6.40;2.10;;;;;;;22.76;36.65;100317.11;106187;1289;61625;-83
2022/05/23 05:11:48;;;;;;;10.60;2.20;;;;;;;22.75;36.76;100316.13;105944;1289;60496;-81
2022/05/23 05:14:13;;;;;;;11.70;2.30;;;;;;;22.78;36.67;100312.10;106197;1287;59019;-81
2022/05/23 05:16:39;;;;;;;5.40;2.10;;;;;;;22.80;36.67;100312.61;106305;1286;60836;-83
2022/05/23 05:19:05;;;;;;;6.60;2.20;;;;;;;22.82;36.56;100312.25;106090;1289;60483;-82
2022/05/23 05:21:30;;;;;;;7.80;2.10;;;;;;;22.80;36.58;100314.98;106071;1288;61574;-82
2022/05/23 05:23:56;;;;;;;13.30;2.10;;;;;;;22.79;36.68;100314.54;106084;1289;60494;-81
2022/05/23 05:26:22;;;;;;;5.10;2.00;;;;;;;22.79;36.60;100314.35;106136;1287;59405;-80
2022/05/23 05:28:48;;;;;;;4.70;2.20;;;;;;;22.77;36.55;100319.73;106216;1287;60476;-80
2022/05/23 05:31:36;;;;;;;6.60;2.30;;;;;;;22.73;36.25;100316.75;106269;1287;60464;-82
2022/05/23 05:34:33;;;;;;;8.10;2.00;;;;;;;22.72;36.31;100322.23;106323;1287;72584;-81
2022/05/23 05:37:02;;;;;;;6.80;2.00;;;;;;;22.76;36.45;100321.91;106323;1287;73919;-83
2022/05/23 05:39:31;;;;;;;4.70;2.00;;;;;;;22.80;36.58;100325.05;106125;1289;60728;-84
2022/05/23 05:41:59;;;;;;;6.40;2.10;;;;;;;22.81;36.63;100324.88;106687;1287;60465;-81
2022/05/23 05:44:27;;;;;;;10.30;2.30;;;;;;;22.82;36.65;100324.31;105772;1289;72940;-80
2022/05/23 05:46:54;;;;;;;5.80;2.00;;;;;;;22.83;36.43;100325.45;106366;1289;75051;-83
2022/05/23 05:49:22;;;;;;;6.20;1.90;;;;;;;22.85;36.56;100325.33;106923;1287;60518;-83
2022/05/23 05:51:48;;;;;;;10.50;2.20;;;;;;;22.87;36.38;100327.12;106502;1287;61362;-84
2022/05/23 05:54:18;;;;;;;8.20;2.20;;;;;;;22.84;36.38;100327.73;105390;1287;60387;-86
2022/05/23 05:56:45;;;;;;;14.50;2.60;;;;;;;22.74;36.07;100327.13;105589;1287;73964;-84
2022/05/23 05:59:12;;;;;;;8.10;2.10;;;;;;;22.73;36.17;100328.65;105467;1287;60798;-86
2022/05/23 06:01:40;;;;;;;9.40;2.60;;;;;;;22.70;35.87;100326.05;106228;1287;60623;-83
2022/05/23 06:04:06;;;;;;;10.30;2.10;;;;;;;22.68;35.90;100327.45;106850;1287;73534;-84
2022/05/23 06:11:59;;;;;;;8.20;2.30;;;;;;;22.68;36.11;100326.20;106326;1288;61138;-82
2022/05/23 06:14:25;;;;;;;9.00;2.20;;;;;;;22.67;35.99;100321.64;105513;1287;847331;-83
2022/05/23 06:16:51;;;;;;;7.70;2.30;;;;;;;22.57;35.96;100323.75;106018;1287;60530;-83
2022/05/23 06:19:17;;;;;;;16.20;2.50;;;;;;;22.45;36.10;100319.39;106073;1287;60691;-84
2022/05/23 06:21:43;;;;;;;8.80;2.30;;;;;;;22.49;36.20;100321.77;106375;1287;60400;-82
2022/05/23 06:24:08;;;;;;;8.20;2.10;;;;;;;22.56;36.20;100319.00;106014;1287;60528;-82
2022/05/23 06:26:34;;;;;;;6.10;2.20;;;;;;;22.63;36.30;100315.19;106179;1287;60488;-83
2022/05/23 06:29:00;;;;;;;9.80;2.20;;;;;;;22.66;36.20;100307.56;106117;1289;74050;-83
2022/05/23 06:31:26;;;;;;;4.40;2.10;;;;;;;22.67;36.00;100314.05;106180;1287;59295;-84
2022/05/23 06:33:52;;;;;;;8.30;2.40;;;;;;;22.69;36.20;100310.02;106125;1289;61532;-81
2022/05/23 06:36:18;;;;;;;5.80;1.90;;;;;;;22.73;36.22;100317.67;106234;1286;59303;-82
2022/05/23 06:38:44;;;;;;;9.10;2.00;;;;;;;22.75;35.93;100312.89;106169;1289;59367;-80
2022/05/23 06:41:10;;;;;;;4.80;1.90;;;;;;;22.76;36.11;100313.51;106189;1289;60456;-80
2022/05/23 06:43:36;;;;;;;14.30;2.00;;;;;;;22.79;36.08;100309.48;106136;1289;60485;-82
2022/05/23 06:46:02;;;;;;;7.70;2.00;;;;;;;22.80;36.02;100307.25;106282;1289;60492;-83
2022/05/23 06:48:28;;;;;;;4.40;2.00;;;;;;;22.81;35.89;100313.47;106100;1288;61179;-81
2022/05/23 06:50:54;;;;;;;5.00;2.00;;;;;;;22.83;35.81;100310.77;106149;1289;58407;-82
2022/05/23 06:53:21;;;;;;;5.80;2.30;;;;;;;22.85;35.79;100309.72;106196;1289;60536;-84
2022/05/23 06:55:46;;;;;;;9.00;2.10;;;;;;;22.82;35.66;100307.04;106075;1289;59911;-82
2022/05/23 06:58:12;;;;;;;10.10;2.10;;;;;;;22.75;35.37;100307.70;106434;1286;60321;-83
2022/05/23 07:00:38;;;;;;;4.90;1.90;;;;;;;22.65;35.26;100308.16;105945;1287;61826;-85
2022/05/23 07:03:04;;;;;;;11.20;2.10;;;;;;;22.52;35.23;100310.53;106476;1287;60518;-82
2022/05/23 07:13:44;;;;;;;4.20;2.10;;;;;;;22.60;35.77;100310.92;106321;1286;75153;-82
2022/05/23 07:16:10;;;;;;;8.10;2.00;;;;;;;22.67;35.93;100306.58;106593;1287;58862;-82
2022/05/23 07:18:38;;;;;;;7.80;2.00;;;;;;;22.74;36.05;100310.80;106261;1286;60344;-85
2022/05/23 07:21:07;;;;;;;7.70;1.90;;;;;;;22.79;36.17;100311.29;106297;1289;60423;-84
2022/05/23 07:23:35;;;;;;;4.50;2.00;;;;;;;22.82;36.10;100311.54;106153;1289;73758;-83
2022/05/23 07:26:02;;;;;;;5.10;2.20;;;;;;;22.87;36.18;100312.02;106913;1287;60628;-83
2022/05/23 07:28:28;;;;;;;3.90;2.20;;;;;;;22.92;36.18;100314.49;106818;1287;60232;-84
2022/05/23 07:30:53;;;;;;;4.10;1.80;;;;;;;22.95;36.27;100314.89;106956;1286;58512;-84
2022/05/23 07:33:20;;;;;;;7.00;2.20;;;;;;;22.99;36.36;100313.14;106928;1286;58346;-84
2022/05/23 07:35:45;;;;;;;7.10;2.00;;;;;;;22.94;36.11;100314.64;106802;1286;59726;-83
2022/05/23 07:38:11;;;;;;;4.90;1.90;;;;;;;22.92;36.04;100318.36;106159;1287;59089;-83
2022/05/23 07:40:36;;;;;;;4.80;1.90;;;;;;;22.91;36.08;100318.14;106256;1286;60433;-83
2022/05/23 07:43:02;;;;;;;5.40;1.90;;;;;;;22.82;35.59;100324.86;106268;1287;60439;-82
2022/05/23 07:45:29;;;;;;;5.90;2.10;;;;;;;22.74;35.65;100320.33;106307;1287;60561;-83
2022/05/23 07:47:55;;;;;;;4.40;2.00;;;;;;;22.77;35.78;100324.03;106167;1286;60338;-84
2022/05/23 07:50:21;;;;;;;11.10;2.40;;;;;;;22.81;35.84;100319.76;106233;1286;60502;-84
2022/05/23 08:01:00;;;;;;;8.90;1.70;;;;;;;22.78;35.34;100319.45;105722;1286;60459;-85
2022/05/23 08:03:25;;;;;;;6.80;1.80;;;;;;;22.63;35.35;100323.60;106307;1286;60497;-84
2022/05/23 08:05:51;;;;;;;6.90;2.00;;;;;;;22.55;35.22;100329.46;106306;1287;60537;-83
2022/05/23 08:08:17;;;;;;;9.30;2.30;;;;;;;22.56;35.36;100327.94;106282;1289;60470;-86
2022/05/23 08:10:42;;;;;;;6.70;1.70;;;;;;;22.60;35.51;100330.47;106225;1287;112009;-80
2022/05/23 08:13:17;;;;;;;5.40;1.80;;;;;;;22.60;35.53;100333.48;106665;1285;60441;-79
2022/05/23 08:15:53;;;;;;;8.00;1.80;;;;;;;22.66;35.62;100329.80;106337;1286;73742;-80
2022/05/23 08:18:19;;;;;;;7.80;1.80;;;;;;;22.71;35.54;100334.02;106654;1285;60445;-80
2022/05/23 08:20:45;;;;;;;5.90;1.80;;;;;;;22.76;35.62;100326.73;106466;1287;59318;-79
2022/05/23 08:23:10;;;;;;;7.20;2.00;;;;;;;22.80;35.60;100325.02;106486;1286;60554;-79
2022/05/23 08:25:36;;;;;;;4.50;1.70;;;;;;;22.83;35.43;100324.27;106293;1286;60490;-80
2022/05/23 08:28:02;;;;;;;5.00;1.90;;;;;;;22.87;35.66;100324.58;106624;1285;61111;-80
2022/05/23 08:30:28;;;;;;;4.60;2.10;;;;;;;22.87;35.35;100326.58;106451;1286;73906;-81
2022/05/23 08:32:54;;;;;;;4.60;1.80;;;;;;;22.78;35.26;100324.83;106560;1286;60551;-80
2022/05/23 08:35:21;;;;;;;5.00;1.90;;;;;;;22.80;35.52;100326.46;106496;1287;60533;-80
2022/05/23 08:37:46;;;;;;;7.00;2.20;;;;;;;22.83;35.43;100323.27;106633;1286;61141;-80
2022/05/23 08:40:12;;;;;;;5.70;1.80;;;;;;;22.87;35.59;100328.73;106398;1286;59339;-82
2022/05/23 08:42:56;;;;;;;3.30;1.90;;;;;;;22.87;35.38;100328.48;106589;1286;60516;-82
2022/05/23 08:45:30;;;;;;;8.40;2.10;;;;;;;22.77;35.17;100326.55;107049;1286;59043;-81
2022/05/23 08:48:11;;;;;;;5.60;1.80;;;;;;;22.63;34.86;100327.86;106509;1285;73931;-82
2022/05/23 08:51:05;;;;;;;4.90;2.00;;;;;;;22.59;35.04;100329.88;106631;1286;74099;-82
2022/05/23 08:54:14;;;;;;;7.40;2.10;;;;;;;22.62;35.14;100325.83;106378;1286;60394;-79
2022/05/23 08:56:45;;;;;;;16.30;2.30;;;;;;;22.54;34.88;100329.49;105453;1290;62820;-80
2022/05/23 08:59:38;;;;;;;6.10;2.00;;;;;;;22.53;34.89;100329.62;106585;1290;71801;-82
2022/05/23 09:02:08;;;;;;;7.50;2.30;;;;;;;22.51;34.72;100324.08;105940;1289;74710;-79
2022/05/23 09:04:35;;;;;;;9.00;1.80;;;;;;;22.42;34.66;100325.74;106129;1289;61099;-79
2022/05/23 09:07:03;;;;;;;11.90;2.30;;;;;;;22.36;34.76;100327.46;105586;1290;61516;-80
2022/05/23 09:09:31;;;;;;;8.70;2.00;;;;;;;22.41;34.79;100326.54;105777;1290;72730;-79
2022/05/23 09:12:17;;;;;;;7.30;1.70;;;;;;;22.46;34.79;100335.83;105677;1290;73660;-79
2022/05/23 09:14:42;;;;;;;6.00;1.60;;;;;;;22.46;34.95;100337.36;105828;1289;61283;-79
2022/05/23 09:17:37;;;;;;;4.50;2.00;;;;;;;22.48;34.74;100335.46;105841;1289;60488;-78
2022/05/23 09:20:14;;;;;;;7.00;1.80;;;;;;;22.45;34.71;100326.05;105825;1289;73764;-79
2022/05/23 09:22:51;;;;;;;8.60;2.50;;;;;;;22.50;34.92;100324.65;106542;1289;73086;-80
2022/05/23 09:25:26;;;;;;;8.90;2.10;;;;;;;22.57;35.05;100323.91;105998;1289;60254;-80
2022/05/23 09:28:00;;;;;;;3.20;1.80;;;;;;;22.61;35.10;100320.87;105947;1290;61537;-79
2022/05/23 09:30:27;;;;;;;9.60;2.20;;;;;;;22.60;35.06;100320.03;106316;1289;72878;-80
2022/05/23 09:33:02;;;;;;;10.50;1.90;;;;;;;22.61;34.91;100321.10;105794;1289;60469;-79
2022/05/23 09:36:08;;;;;;;10.30;2.20;;;;;;;22.60;35.01;100320.41;106625;1286;60511;-80
2022/05/23 09:39:03;;;;;;;6.60;2.10;;;;;;;22.61;34.93;100326.05;105825;1292;60457;-79
2022/05/23 09:50:06;;;;;;;8.90;2.10;;;;;;;22.68;35.10;100326.17;105944;1292;60443;-80
2022/05/23 09:52:32;;;;;;;8.50;2.30;;;;;;;22.69;35.00;100327.75;105592;1292;59462;-80
2022/05/23 09:55:00;;;;;;;10.40;2.20;;;;;;;22.66;34.89;100328.55;105373;1293;60694;-80
2022/05/23 09:57:33;;;;;;;16.10;2.50;;;;;;;22.63;35.14;100320.40;105034;1292;61539;-79
2022/05/23 10:00:10;;;;;;;7.90;2.00;;;;;;;22.61;35.13;100320.51;105138;1292;61140;-79
2022/05/23 10:02:39;;;;;;;5.40;2.10;;;;;;;22.50;35.14;100321.47;105002;1292;73986;-83
2022/05/23 10:05:22;;;;;;;5.00;2.00;;;;;;;22.43;35.14;100329.74;104643;1292;73762;-80
2022/05/23 10:07:50;;;;;;;12.30;2.20;;;;;;;22.35;35.16;100328.63;104864;1292;61461;-81
2022/05/23 10:10:18;;;;;;;7.80;2.10;;;;;;;22.32;35.29;100328.19;104684;1294;61790;-80
2022/05/23 10:12:44;;;;;;;6.30;1.90;;;;;;;22.33;35.28;100326.08;105294;1286;72794;-80
2022/05/23 10:15:22;;;;;;;9.10;2.40;;;;;;;22.38;35.47;100324.11;105495;1286;60489;-80
2022/05/23 10:18:06;;;;;;;6.90;2.40;;;;;;;22.45;35.45;100321.75;105608;1286;60575;-80
2022/05/23 10:20:39;;;;;;;10.00;2.00;;;;;;;22.48;35.60;100322.17;105589;1286;61207;-80
2022/05/23 10:23:07;;;;;;;5.40;1.90;;;;;;;22.48;35.47;100323.42;105446;1287;74161;-79
2022/05/23 10:25:40;;;;;;;7.60;2.20;;;;;;;22.48;35.19;100329.86;106212;1286;73718;-79
2022/05/23 10:28:10;;;;;;;6.80;2.00;;;;;;;22.49;35.44;100327.67;105656;1286;61626;-80
2022/05/23 10:30:38;;;;;;;4.60;2.30;;;;;;;22.50;35.40;100326.68;105859;1286;61338;-79
2022/05/23 10:33:15;;;;;;;5.50;1.70;;;;;;;22.47;35.41;100328.56;105749;1286;72712;-80
2022/05/23 10:35:53;;;;;;;9.30;1.80;;;;;;;22.45;35.29;100328.66;105765;1286;73906;-80
2022/05/23 10:44:34;;;;;;;9.00;2.20;;;;;;;22.38;35.17;100316.86;107302;1286;72779;-80
2022/05/23 10:47:30;;;;;;;12.20;2.40;;;;;;;22.39;35.18;100316.66;107236;1286;74974;-80
2022/05/23 10:50:33;;;;;;;13.20;2.10;;;;;;;22.42;35.36;100312.10;107223;1286;60394;-81
2022/05/23 10:52:59;;;;;;;13.50;2.30;;;;;;;22.44;35.31;100309.26;106658;1286;60103;-80
2022/05/23 10:56:04;;;;;;;12.50;2.40;;;;;;;22.47;35.66;100306.48;107262;1285;58947;-80
2022/05/23 10:58:43;;;;;;;6.30;1.90;;;;;;;22.55;35.68;100309.05;107286;1284;75055;-80
2022/05/23 11:01:32;;;;;;;9.30;2.10;;;;;;;22.61;35.83;100296.11;107287;1286;60306;-80
2022/05/23 11:04:11;;;;;;;5.90;2.20;;;;;;;22.63;35.74;100297.98;107161;1285;61286;-80
2022/05/23 11:07:13;;;;;;;7.40;2.40;;;;;;;22.59;35.81;100299.31;107038;1286;74135;-80
2022/05/23 11:09:50;;;;;;;4.30;2.20;;;;;;;22.65;35.87;100291.67;106611;1288;73417;-80
2022/05/23 11:12:38;;;;;;;7.80;2.80;;;;;;;22.60;35.96;100287.61;106702;1285;60206;-80
2022/05/23 11:15:38;;;;;;;11.90;3.40;;;;;;;22.53;35.87;100283.78;106113;1286;61693;-80
2022/05/23 11:18:12;;;;;;;8.10;3.50;;;;;;;22.53;36.10;100282.48;105853;1286;72460;-80
2022/05/23 11:20:39;;;;;;;9.40;3.00;;;;;;;22.58;36.00;100279.54;106361;1286;74966;-80
2022/05/23 11:23:14;;;;;;;12.70;3.30;;;;;;;22.62;36.04;100274.89;105882;1286;61346;-80
2022/05/23 11:25:44;;;;;;;7.90;2.90;;;;;;;22.66;36.10;100277.80;106015;1289;60325;-81
2022/05/23 11:33:52;;;;;;;16.70;3.40;;;;;;;22.64;35.87;100270.79;106358;1286;60376;-80
2022/05/23 11:36:24;;;;;;;15.10;2.90;;;;;;;22.68;36.10;100268.43;106157;1286;61282;-80
2022/05/23 11:38:51;;;;;;;14.20;3.10;;;;;;;22.72;36.04;100264.30;106289;1286;73016;-80
2022/05/23 11:41:39;;;;;;;11.20;3.00;;;;;;;22.75;35.96;100265.34;106239;1286;60440;-80
2022/05/23 11:44:42;;;;;;;9.30;3.10;;;;;;;22.74;35.92;100262.55;105832;1285;60658;-80
2022/05/23 11:47:18;;;;;;;15.40;2.90;;;;;;;22.73;36.32;100255.80;106063;1285;61530;-80
2022/05/23 11:49:51;;;;;;;15.90;3.00;;;;;;;22.79;36.30;100261.77;107168;1286;72737;-80
2022/05/23 11:52:25;;;;;;;9.00;2.60;;;;;;;22.83;36.45;100255.14;107066;1286;74963;-80
2022/05/23 11:54:50;;;;;;;20.10;3.30;;;;;;;22.87;36.41;100257.13;107203;1285;60247;-80
2022/05/23 11:57:35;;;;;;;24.80;3.10;;;;;;;22.91;36.52;100252.10;107063;1286;58627;-80
2022/05/23 12:00:42;;;;;;;7.00;2.20;;;;;;;22.94;36.53;100257.43;107253;1286;73648;-79
2022/05/23 12:03:11;;;;;;;9.80;2.50;;;;;;;22.91;36.51;100252.24;105999;1292;75114;-80
2022/05/23 12:05:36;;;;;;;12.90;3.10;;;;;;;22.96;36.49;100247.77;105424;1292;61566;-81
2022/05/23 12:08:07;;;;;;;8.40;2.80;;;;;;;22.99;36.39;100246.04;105715;1292;60566;-80
2022/05/23 12:10:36;;;;;;;32.60;3.50;;;;;;;23.02;36.34;100245.23;105653;1292;72882;-80
2022/05/23 12:13:11;;;;;;;9.60;3.40;;;;;;;23.05;36.39;100243.37;105794;1292;75286;-82
2022/05/23 12:15:43;;;;;;;6.30;2.30;;;;;;;23.02;36.20;100238.95;105819;1291;60476;-81
2022/05/23 12:18:38;;;;;;;9.40;2.40;;;;;;;22.93;35.83;100242.08;105839;1292;60572;-81
2022/05/23 12:21:28;;;;;;;10.80;2.80;;;;;;;22.86;35.72;100235.64;105456;1297;72768;-80
2022/05/23 12:24:11;;;;;;;10.80;2.70;;;;;;;22.82;35.69;100238.38;105196;1296;73864;-80
2022/05/23 12:26:37;;;;;;;11.60;2.70;;;;;;;22.85;35.78;100241.34;105045;1298;61260;-80
2022/05/23 12:29:23;;;;;;;10.00;2.80;;;;;;;22.88;35.85;100238.69;105257;1297;61486;-82
2022/05/23 12:32:10;;;;;;;5.90;2.60;;;;;;;22.92;35.85;100237.48;105280;1298;73874;-82
2022/05/23 12:34:44;;;;;;;7.00;2.60;;;;;;;22.93;35.70;100235.02;105597;1297;73947;-89
2022/05/23 12:37:26;;;;;;;7.90;2.40;;;;;;;22.94;35.71;100229.38;105256;1292;61302;-82
2022/05/23 12:40:01;;;;;;;6.10;2.00;;;;;;;22.98;35.72;100225.66;105630;1292;60477;-82
2022/05/23 12:42:27;;;;;;;11.90;2.30;;;;;;;23.01;35.67;100220.84;105661;1291;73369;-82
2022/05/23 12:45:22;;;;;;;4.90;2.20;;;;;;;23.04;35.61;100219.73;105605;1292;60557;-81
2022/05/23 12:47:47;;;;;;;7.10;2.50;;;;;;;23.08;35.69;100219.94;105579;1292;60330;-82
2022/05/23 12:50:18;;;;;;;5.70;2.00;;;;;;;23.09;35.59;100218.20;105628;1292;59258;-81
2022/05/23 12:52:49;;;;;;;6.30;2.20;;;;;;;23.10;35.59;100219.38;105620;1292;72513;-81
2022/05/23 12:55:40;;;;;;;4.80;2.20;;;;;;;23.11;35.40;100219.13;105570;1292;72678;-81
2022/05/23 12:58:16;;;;;;;5.50;2.00;;;;;;;23.07;35.20;100212.69;106400;1286;60707;-83
2022/05/23 13:01:03;;;;;;;4.60;1.90;;;;;;;22.98;35.06;100217.21;106607;1286;59461;-81
2022/05/23 13:03:32;;;;;;;4.80;1.90;;;;;;;22.90;34.95;100211.08;106433;1286;73072;-81
2022/05/23 13:06:16;;;;;;;4.90;1.80;;;;;;;22.89;35.21;100213.48;106496;1286;73298;-85
2022/05/23 13:09:06;;;;;;;4.70;2.00;;;;;;;22.92;35.12;100210.88;106598;1286;60600;-82
2022/05/23 13:11:44;;;;;;;7.70;2.10;;;;;;;22.96;35.06;100202.70;106740;1286;61267;-82
2022/05/23 13:14:10;;;;;;;6.10;1.90;;;;;;;23.00;35.18;100201.10;106408;1286;73984;-82
2022/05/23 13:16:38;;;;;;;8.40;1.90;;;;;;;23.02;35.14;100199.64;106337;1286;61676;-81
2022/05/23 13:22:06;;;;;;;7.30;1.80;;;;;;;23.09;35.14;100195.01;106423;1286;61469;-82
2022/05/23 13:24:49;;;;;;;5.40;2.20;;;;;;;23.13;35.08;100201.23;106547;1286;73729;-82
2022/05/23 13:27:22;;;;;;;5.70;2.10;;;;;;;23.14;34.90;100202.18;106522;1286;74769;-84
2022/05/23 13:29:53;;;;;;;5.80;2.10;;;;;;;23.12;34.78;100199.62;106300;1286;60455;-84
2022/05/23 13:32:18;;;;;;;4.80;2.10;;;;;;;23.08;34.73;100198.02;106585;1286;60517;-83
2022/05/23 13:34:46;;;;;;;5.20;2.00;;;;;;;23.08;34.69;100193.93;106583;1284;60529;-87
2022/05/23 13:37:35;;;;;;;4.50;2.00;;;;;;;23.03;34.49;100192.05;106575;1286;74722;-84
2022/05/23 13:40:18;;;;;;;5.20;2.00;;;;;;;23.01;34.38;100189.55;106571;1286;60774;-83
2022/05/23 13:42:50;;;;;;;6.00;2.00;;;;;;;23.03;34.51;100190.77;106877;1286;60846;-83
2022/05/23 13:45:21;;;;;;;4.80;2.00;;;;;;;23.06;34.42;100182.95;106522;1286;73983;-84
2022/05/23 13:47:59;;;;;;;3.50;1.90;;;;;;;23.08;34.55;100186.31;106438;1286;74945;-89
2022/05/23 13:50:29;;;;;;;6.80;1.90;;;;;;;23.12;34.61;100187.43;106462;1286;60708;-84
2022/05/23 13:52:58;;;;;;;4.40;2.00;;;;;;;23.15;34.57;100188.86;106564;1286;60370;-82
2022/05/23 13:55:32;;;;;;;4.60;1.90;;;;;;;23.17;34.57;100190.23;106433;1285;72657;-82
2022/05/23 13:58:00;;;;;;;4.90;1.90;;;;;;;23.20;34.53;100191.95;106751;1286;73082;-84
2022/05/23 14:00:39;;;;;;;6.40;2.20;;;;;;;23.19;34.29;100189.52;106401;1285;61676;-85
2022/05/23 14:03:36;;;;;;;3.20;1.90;;;;;;;23.20;34.39;100189.07;106465;1286;60644;-82
2022/05/23 14:06:05;;;;;;;4.30;2.00;;;;;;;23.23;34.48;100195.81;106142;1286;72772;-86
2022/05/23 14:08:43;;;;;;;5.40;2.00;;;;;;;23.25;34.49;100198.15;106362;1286;73908;-83
2022/05/23 14:11:23;;;;;;;3.40;1.90;;;;;;;23.28;34.46;100190.75;106758;1286;61117;-82
2022/05/23 14:13:50;;;;;;;4.80;2.00;;;;;;;23.30;34.35;100189.64;106353;1287;60625;-80
2022/05/23 14:16:17;;;;;;;4.00;1.90;;;;;;;23.32;34.43;100192.66;106177;1286;72060;-81
2022/05/23 14:18:42;;;;;;;8.90;3.80;;;;;;;23.34;34.38;100195.03;106137;1287;73628;-81
2022/05/23 14:21:35;;;;;;;6.20;3.70;;;;;;;23.36;34.39;100190.05;106354;1286;60582;-81
2022/05/23 14:24:02;;;;;;;6.70;3.10;;;;;;;23.37;34.39;100192.55;106408;1286;62554;-81
2022/05/23 14:26:28;;;;;;;13.60;8.30;;;;;;;23.39;34.40;100198.50;106460;1286;73610;-82
2022/05/23 14:28:55;;;;;;;21.30;15.60;;;;;;;23.40;34.46;100196.98;106438;1286;60559;-82
2022/05/23 14:31:41;;;;;;;21.60;16.90;;;;;;;23.42;34.39;100194.31;106562;1286;60456;-83
2022/05/23 14:34:15;;;;;;;23.30;15.70;;;;;;;23.43;34.53;100197.96;106373;1285;60555;-81
2022/05/23 14:36:40;;;;;;;20.00;14.80;;;;;;;23.44;34.55;100200.08;106401;1286;72564;-83
2022/05/23 14:39:16;;;;;;;19.70;13.30;;;;;;;23.45;34.64;100197.61;106277;1285;60527;-81
2022/05/23 14:41:46;;;;;;;18.10;12.20;;;;;;;23.47;34.58;100195.15;106488;1286;60777;-82
2022/05/23 14:44:30;;;;;;;18.50;12.10;;;;;;;23.48;34.67;100197.38;106539;1285;60451;-81
2022/05/23 14:47:02;;;;;;;18.10;12.90;;;;;;;23.47;34.76;100193.80;106854;1286;71752;-81
2022/05/23 14:49:38;;;;;;;17.50;11.60;;;;;;;23.48;34.82;100193.58;106623;1286;74747;-81
2022/05/23 14:52:26;;;;;;;15.10;10.80;;;;;;;23.49;34.87;100195.14;106477;1286;60327;-84
2022/05/23 15:00:48;;;;;;;20.30;11.00;;;;;;;23.49;34.99;100204.79;105748;1292;74083;-83
2022/05/23 15:03:22;;;;;;;15.90;9.70;;;;;;;23.49;35.12;100204.80;105850;1291;60602;-83
2022/05/23 15:05:49;;;;;;;14.70;9.50;;;;;;;23.49;35.01;100205.13;105825;1291;60493;-84
2022/05/23 15:08:16;;;;;;;15.90;9.90;;;;;;;23.48;35.07;100202.14;105768;1292;73636;-81
2022/05/23 15:10:41;;;;;;;14.30;9.10;;;;;;;23.49;35.07;100203.56;105797;1292;73950;-82
2022/05/23 15:13:07;;;;;;;13.30;9.30;;;;;;;23.48;35.22;100202.89;105953;1292;61247;-82
2022/05/23 15:15:33;;;;;;;13.50;8.40;;;;;;;23.49;35.13;100204.30;105642;1292;60512;-83
2022/05/23 15:17:59;;;;;;;12.70;8.90;;;;;;;23.48;35.29;100203.11;105796;1292;60655;-81
2022/05/23 15:20:25;;;;;;;12.80;8.00;;;;;;;23.48;35.34;100204.02;105757;1292;60494;-81
2022/05/23 15:22:52;;;;;;;11.90;8.20;;;;;;;23.48;35.28;100205.80;105794;1292;60325;-82
2022/05/23 15:25:18;;;;;;;12.10;8.20;;;;;;;23.47;35.27;100203.23;105856;1291;60456;-82
2022/05/23 15:27:44;;;;;;;11.70;7.80;;;;;;;23.47;35.35;100205.48;105969;1292;60495;-81
2022/05/23 15:30:12;;;;;;;13.10;7.50;;;;;;;23.47;35.37;100206.43;105962;1292;60481;-83
2022/05/23 15:32:40;;;;;;;14.60;7.60;;;;;;;23.47;35.44;100205.56;106215;1286;60514;-81
2022/05/23 15:35:07;;;;;;;12.00;7.80;;;;;;;23.46;35.50;100204.36;106866;1285;60375;-84
2022/05/23 15:37:36;;;;;;;11.00;7.20;;;;;;;23.45;35.49;100202.09;106522;1286;72656;-88
2022/05/23 15:40:04;;;;;;;9.40;6.20;;;;;;;23.45;35.50;100199.95;106493;1286;72889;-85
2022/05/23 15:42:30;;;;;;;12.00;7.40;;;;;;;23.44;35.64;100196.95;106435;1286;61328;-84
2022/05/23 15:44:57;;;;;;;8.90;6.00;;;;;;;23.44;35.66;100197.69;106255;1286;60444;-83
2022/05/23 15:47:27;;;;;;;8.10;6.00;;;;;;;23.44;35.56;100194.65;106493;1285;60450;-85
2022/05/23 15:49:53;;;;;;;9.90;6.30;;;;;;;23.44;35.79;100197.38;106319;1286;74681;-83
2022/05/23 15:52:19;;;;;;;11.20;5.90;;;;;;;23.44;35.74;100200.44;106457;1286;59275;-83
2022/05/23 15:54:44;;;;;;;8.50;5.70;;;;;;;23.44;35.70;100208.70;106534;1286;60476;-88
2022/05/23 15:57:11;;;;;;;9.70;5.90;;;;;;;23.44;35.88;100214.98;106319;1286;60382;-85
2022/05/23 15:59:41;;;;;;;7.70;5.40;;;;;;;23.43;35.80;100220.73;106567;1286;75025;-84
2022/05/23 16:02:12;;;;;;;9.70;5.40;;;;;;;23.44;35.83;100224.85;106487;1286;60390;-83
2022/05/23 16:04:41;;;;;;;;;;;;;;;23.43;35.84;100224.52;106436;1286;60392;-85
2022/05/23 16:07:07;;;;;;;7.40;5.20;;;;;;;23.41;35.90;100228.81;106334;1286;73697;-83
2022/05/23 16:09:33;;;;;;;8.60;5.20;;;;;;;23.42;35.93;100233.41;106476;1286;61094;-84
2022/05/23 16:12:00;;;;;;;7.70;5.00;;;;;;;23.42;36.02;100236.34;106547;1286;60316;-86
2022/05/23 16:14:26;;;;;;;7.90;5.00;;;;;;;23.42;36.04;100239.55;106533;1286;60333;-84
2022/05/23 16:16:57;;;;;;;8.20;4.90;;;;;;;23.42;36.09;100245.45;106509;1286;60462;-85
2022/05/23 16:19:23;;;;;;;7.90;4.50;;;;;;;23.42;36.18;100245.27;106323;1286;74084;-83
2022/05/23 16:21:49;;;;;;;7.50;4.70;;;;;;;23.42;36.15;100243.14;106798;1286;60853;-84
2022/05/23 16:24:15;;;;;;;8.10;4.60;;;;;;;23.42;36.16;100243.65;106535;1286;60458;-83
2022/05/23 16:26:43;;;;;;;8.90;5.10;;;;;;;23.42;36.06;100244.56;106839;1286;73826;-83
2022/05/23 16:29:09;;;;;;;6.40;4.20;;;;;;;23.42;36.29;100246.01;106299;1286;60490;-82
2022/05/23 16:31:35;;;;;;;11.30;4.40;;;;;;;23.42;36.24;100249.27;106494;1286;60384;-85
2022/05/23 16:36:54;;;;;;;6.80;4.10;;;;;;;23.42;36.24;100253.38;106525;1286;72784;-84
2022/05/23 16:39:21;;;;;;;7.90;4.00;;;;;;;23.41;36.29;100253.09;106333;1286;73817;-84
2022/05/23 16:41:48;;;;;;;7.30;4.20;;;;;;;23.42;36.21;100252.84;106362;1286;61294;-83
2022/05/23 16:44:15;;;;;;;7.90;4.40;;;;;;;23.42;36.33;100252.87;106321;1286;60402;-84
2022/05/23 16:46:41;;;;;;;7.80;4.00;;;;;;;23.42;36.30;100252.13;106524;1286;73693;-84
2022/05/23 16:49:09;;;;;;;6.00;3.80;;;;;;;23.42;36.31;100256.03;106545;1286;60941;-85
2022/05/23 16:51:36;;;;;;;7.40;3.30;;;;;;;23.42;36.36;100253.41;106482;1286;60365;-86
2022/05/23 16:54:03;;;;;;;5.60;3.40;;;;;;;23.41;36.26;100254.48;106552;1286;61531;-86
2022/05/23 16:56:31;;;;;;;7.00;3.60;;;;;;;23.41;36.43;100252.71;106489;1286;60407;-85
2022/05/23 16:58:57;;;;;;;9.50;3.80;;;;;;;23.41;36.33;100255.58;106841;1286;74957;-86
2022/05/23 17:01:23;;;;;;;5.70;3.00;;;;;;;23.41;36.44;100255.44;106551;1286;60450;-85
2022/05/23 17:03:50;;;;;;;5.70;3.10;;;;;;;23.41;36.43;100256.72;106555;1286;60576;-85
2022/05/23 17:06:25;;;;;;;5.20;3.20;;;;;;;23.40;36.41;100253.15;106509;1286;60344;-85
2022/05/23 17:08:51;;;;;;;6.80;3.40;;;;;;;23.40;36.48;100253.14;106559;1286;74951;-84
2022/05/23 17:11:17;;;;;;;7.60;3.30;;;;;;;23.40;36.45;100252.80;106463;1286;60473;-85
2022/05/23 17:13:42;;;;;;;6.20;3.20;;;;;;;23.40;36.52;100252.65;106535;1286;60445;-83
2022/05/23 17:16:09;;;;;;;6.10;3.60;;;;;;;23.40;36.57;100255.55;106493;1286;60447;-88
2022/05/23 17:18:35;;;;;;;5.90;3.00;;;;;;;23.40;36.67;100261.98;106370;1286;60531;-86